Godthab, Greenland
Current Conditions -  °F | °C
As of 9:50 AM on Friday 24 Oct 2014 (Local Time) from BGGH Reporting Station
Broken Clouds Broken Clouds  
Wind Chill: 21°   Ceiling: 5000
Heat Index: 21°   Visibility: 6mi
Dew Point:   Wind: 3mph
Humidity: 58%   Direction: NA
Pressure: 29.53"   Gusts: NA
Location:  64.18°N, 51.72°W
Report Text: BGGH 241150Z VRB03KT 9999 BKN050 M06/M13 Q1000
Loading
Personal Weather Stations






























Interactive Weather Map
Tropical Storm Tracking
New forecast layout! Learn more

10-Day Weather Forecast

Advertisements
Track Severe Weather on mobile